Amo, Colorado
Current Conditions -  °F | °C
As of 2:13 AM on Saturday 01 Nov 2014 (Local Time) from KFLY Reporting Station
Clear Clear  
Wind Chill: 40°   Ceiling: Unl
Heat Index: 44°   Visibility: 10mi
Dew Point: 26°   Wind: 8mph
Humidity: 49%   Direction: 280°W
Pressure: 30.1"   Gusts: NA
Location:  39.0051°N, 104.503°W
Report Text: KFLY 010813Z AUTO 28007KT 10SM CLR 07/M03 A3010 RMK AO2 T00671034
Loading
Personal Weather Stations






























Interactive Weather Map
Tropical Storm Tracking
New forecast layout! Learn more

10-Day Weather Forecast

Advertisements
Track Severe Weather on mobile